Jenny Lake, Wyoming
Current Conditions -  °F | °C
As of 9:56 PM on Thursday 27 Nov 2014 (Local Time) from KDIJ Reporting Station
Scattered Clouds Scattered Clouds  
Wind Chill: 36°   Ceiling: Unl
Heat Index: 42°   Visibility: 10mi
Dew Point: 26°   Wind: 9mph
Humidity: 53%   Direction: 190°S
Pressure: 30.11"   Gusts: NA
Location:  43.8705°N, 110.836°W
Report Text: KDIJ 280456Z AUTO 19008KT 10SM SCT110 06/M03 A3011 RMK AO2 T00551033 SLP161
Loading
Personal Weather Stations






























Interactive Weather Map New forecast layout! Learn more

10-Day Weather Forecast

Advertisements
Track Severe Weather on mobile